sensor_id;sensor_type;location;lat;lon;timestamp;pressure;altitude;pressure_sealevel;temperature;humidity
29907;BME280;16776;50.958;10.994;2023-04-26T00:00:11;98494.59;;;5.70;86.01
29907;BME280;16776;50.958;10.994;2023-04-26T00:02:38;98493.78;;;5.68;86.35
29907;BME280;16776;50.958;10.994;2023-04-26T00:05:05;98499.75;;;5.67;86.03
29907;BME280;16776;50.958;10.994;2023-04-26T00:07:33;98498.06;;;5.66;86.42
29907;BME280;16776;50.958;10.994;2023-04-26T00:10:04;98496.34;;;5.67;86.50
29907;BME280;16776;50.958;10.994;2023-04-26T00:12:32;98496.38;;;5.65;86.53
29907;BME280;16776;50.958;10.994;2023-04-26T00:15:00;98493.84;;;5.62;85.98
29907;BME280;16776;50.958;10.994;2023-04-26T00:17:27;98495.56;;;5.60;86.27
29907;BME280;16776;50.958;10.994;2023-04-26T00:19:53;98498.13;;;5.57;86.47
29907;BME280;16776;50.958;10.994;2023-04-26T00:22:21;98504.97;;;5.55;85.77
29907;BME280;16776;50.958;10.994;2023-04-26T00:24:48;98499.03;;;5.53;85.85
29907;BME280;16776;50.958;10.994;2023-04-26T00:27:15;98505.88;;;5.50;86.07
29907;BME280;16776;50.958;10.994;2023-04-26T00:29:43;98507.59;;;5.49;86.38
29907;BME280;16776;50.958;10.994;2023-04-26T00:32:10;98509.31;;;5.44;85.87
29907;BME280;16776;50.958;10.994;2023-04-26T00:34:37;98505.94;;;5.42;86.34
29907;BME280;16776;50.958;10.994;2023-04-26T00:37:04;98517.88;;;5.40;85.82
29907;BME280;16776;50.958;10.994;2023-04-26T00:39:32;98516.16;;;5.39;85.89
29907;BME280;16776;50.958;10.994;2023-04-26T00:41:59;98524.72;;;5.35;85.96
29907;BME280;16776;50.958;10.994;2023-04-26T00:44:26;98522.19;;;5.32;86.30
29907;BME280;16776;50.958;10.994;2023-04-26T00:46:54;98516.22;;;5.31;86.10
29907;BME280;16776;50.958;10.994;2023-04-26T00:49:22;98521.38;;;5.27;86.34
29907;BME280;16776;50.958;10.994;2023-04-26T00:51:50;98523.06;;;5.26;85.79
29907;BME280;16776;50.958;10.994;2023-04-26T00:54:19;98509.50;;;5.23;85.96
29907;BME280;16776;50.958;10.994;2023-04-26T00:56:46;98518.00;;;5.19;85.95
29907;BME280;16776;50.958;10.994;2023-04-26T00:59:16;98519.75;;;5.17;86.07
29907;BME280;16776;50.958;10.994;2023-04-26T01:01:43;98518.03;;;5.16;86.07
29907;BME280;16776;50.958;10.994;2023-04-26T01:04:11;98517.19;;;5.17;85.91
29907;BME280;16776;50.958;10.994;2023-04-26T01:06:39;98522.28;;;5.14;85.84
29907;BME280;16776;50.958;10.994;2023-04-26T01:09:06;98526.53;;;5.13;86.19
29907;BME280;16776;50.958;10.994;2023-04-26T01:11:34;98523.13;;;5.13;85.78
29907;BME280;16776;50.958;10.994;2023-04-26T01:14:01;98525.72;;;5.11;85.98
29907;BME280;16776;50.958;10.994;2023-04-26T01:16:29;98519.75;;;5.11;85.84
29907;BME280;16776;50.958;10.994;2023-04-26T01:18:56;98514.66;;;5.11;86.03
29907;BME280;16776;50.958;10.994;2023-04-26T01:21:23;98520.63;;;5.11;85.95
29907;BME280;16776;50.958;10.994;2023-04-26T01:23:51;98519.75;;;5.11;85.77
29907;BME280;16776;50.958;10.994;2023-04-26T01:26:18;98518.06;;;5.06;85.85
29907;BME280;16776;50.958;10.994;2023-04-26T01:28:45;98526.56;;;5.05;85.71
29907;BME280;16776;50.958;10.994;2023-04-26T01:31:13;98515.59;;;4.96;85.71
29907;BME280;16776;50.958;10.994;2023-04-26T01:33:40;98527.47;;;5.01;85.78
29907;BME280;16776;50.958;10.994;2023-04-26T01:36:07;98528.31;;;4.99;86.03
29907;BME280;16776;50.958;10.994;2023-04-26T01:38:34;98534.31;;;4.96;86.03
29907;BME280;16776;50.958;10.994;2023-04-26T01:41:03;98526.66;;;4.96;86.46
29907;BME280;16776;50.958;10.994;2023-04-26T01:43:29;98508.88;;;4.80;86.28
29907;BME280;16776;50.958;10.994;2023-04-26T01:45:56;98533.50;;;4.88;86.40
29907;BME280;16776;50.958;10.994;2023-04-26T01:48:22;98530.13;;;4.83;86.15
29907;BME280;16776;50.958;10.994;2023-04-26T01:50:49;98530.97;;;4.81;85.39
29907;BME280;16776;50.958;10.994;2023-04-26T01:53:15;98529.31;;;4.77;85.55
29907;BME280;16776;50.958;10.994;2023-04-26T01:55:42;98526.78;;;4.72;85.93
29907;BME280;16776;50.958;10.994;2023-04-26T01:58:10;98531.88;;;4.71;86.15
29907;BME280;16776;50.958;10.994;2023-04-26T02:00:36;98528.50;;;4.61;86.18
29907;BME280;16776;50.958;10.994;2023-04-26T02:03:03;98526.81;;;4.61;85.90
29907;BME280;16776;50.958;10.994;2023-04-26T02:05:30;98528.53;;;4.58;85.81
29907;BME280;16776;50.958;10.994;2023-04-26T02:07:57;98528.53;;;4.55;86.36
29907;BME280;16776;50.958;10.994;2023-04-26T02:10:24;98526.88;;;4.51;85.96
29907;BME280;16776;50.958;10.994;2023-04-26T02:12:50;98530.31;;;4.47;86.01
29907;BME280;16776;50.958;10.994;2023-04-26T02:15:18;98531.16;;;4.46;85.81
29907;BME280;16776;50.958;10.994;2023-04-26T02:17:46;98528.63;;;4.40;86.24
29907;BME280;16776;50.958;10.994;2023-04-26T02:20:13;98528.63;;;4.37;85.92
29907;BME280;16776;50.958;10.994;2023-04-26T02:22:40;98522.69;;;4.33;85.99
29907;BME280;16776;50.958;10.994;2023-04-26T02:25:07;98526.94;;;4.30;86.34
29907;BME280;16776;50.958;10.994;2023-04-26T02:27:34;98526.13;;;4.28;86.14
29907;BME280;16776;50.958;10.994;2023-04-26T02:30:00;98523.59;;;4.21;86.49
29907;BME280;16776;50.958;10.994;2023-04-26T02:32:29;98522.72;;;4.24;86.18
29907;BME280;16776;50.958;10.994;2023-04-26T02:34:56;98527.84;;;4.19;86.07
29907;BME280;16776;50.958;10.994;2023-04-26T02:37:22;98527.81;;;4.16;85.90
29907;BME280;16776;50.958;10.994;2023-04-26T02:39:49;98527.00;;;4.13;86.49
29907;BME280;16776;50.958;10.994;2023-04-26T02:42:16;98519.38;;;4.08;86.83
29907;BME280;16776;50.958;10.994;2023-04-26T02:44:42;98521.91;;;4.05;86.67
29907;BME280;16776;50.958;10.994;2023-04-26T02:47:09;98519.41;;;4.02;86.07
29907;BME280;16776;50.958;10.994;2023-04-26T02:49:37;98519.41;;;4.02;86.03
29907;BME280;16776;50.958;10.994;2023-04-26T02:52:04;98517.69;;;3.98;86.29
29907;BME280;16776;50.958;10.994;2023-04-26T02:54:30;98520.22;;;3.97;86.16
29907;BME280;16776;50.958;10.994;2023-04-26T02:56:57;98515.16;;;3.94;86.87
29907;BME280;16776;50.958;10.994;2023-04-26T02:59:24;98518.53;;;3.91;86.59
29907;BME280;16776;50.958;10.994;2023-04-26T03:01:50;98510.94;;;3.90;86.46
29907;BME280;16776;50.958;10.994;2023-04-26T03:04:17;98513.47;;;3.88;86.83
29907;BME280;16776;50.958;10.994;2023-04-26T03:06:45;98517.72;;;3.89;86.75
29907;BME280;16776;50.958;10.994;2023-04-26T03:09:11;98516.84;;;3.85;86.32
29907;BME280;16776;50.958;10.994;2023-04-26T03:11:38;98516.84;;;3.84;86.87
29907;BME280;16776;50.958;10.994;2023-04-26T03:14:04;98520.28;;;3.83;86.32
29907;BME280;16776;50.958;10.994;2023-04-26T03:16:39;98525.34;;;3.88;86.54
29907;BME280;16776;50.958;10.994;2023-04-26T03:19:06;98528.75;;;3.79;86.93
29907;BME280;16776;50.958;10.994;2023-04-26T03:21:33;98519.44;;;3.76;86.44
29907;BME280;16776;50.958;10.994;2023-04-26T03:24:01;98523.69;;;3.74;86.20
29907;BME280;16776;50.958;10.994;2023-04-26T03:26:31;98522.81;;;3.71;86.95
29907;BME280;16776;50.958;10.994;2023-04-26T03:28:57;98525.38;;;3.68;86.04
29907;BME280;16776;50.958;10.994;2023-04-26T03:31:24;98533.84;;;3.65;86.70
29907;BME280;16776;50.958;10.994;2023-04-26T03:33:50;98528.78;;;3.62;86.86
29907;BME280;16776;50.958;10.994;2023-04-26T03:36:17;98532.16;;;3.60;87.18
29907;BME280;16776;50.958;10.994;2023-04-26T03:38:44;98540.66;;;3.57;87.09
29907;BME280;16776;50.958;10.994;2023-04-26T03:41:14;98540.66;;;3.59;87.29
29907;BME280;16776;50.958;10.994;2023-04-26T03:43:44;98534.72;;;3.55;87.39
29907;BME280;16776;50.958;10.994;2023-04-26T03:46:11;98541.53;;;3.50;86.97
29907;BME280;16776;50.958;10.994;2023-04-26T03:48:37;98547.44;;;3.49;86.77
29907;BME280;16776;50.958;10.994;2023-04-26T03:51:05;98540.66;;;3.47;87.18
29907;BME280;16776;50.958;10.994;2023-04-26T03:53:31;98549.13;;;3.45;86.75
29907;BME280;16776;50.958;10.994;2023-04-26T03:55:58;98547.47;;;3.44;86.85
29907;BME280;16776;50.958;10.994;2023-04-26T03:58:29;98542.38;;;3.44;87.04
29907;BME280;16776;50.958;10.994;2023-04-26T04:00:56;98548.28;;;3.42;87.22
29907;BME280;16776;50.958;10.994;2023-04-26T04:03:22;98547.44;;;3.41;86.60
29907;BME280;16776;50.958;10.994;2023-04-26T04:05:49;98550.84;;;3.40;86.71
29907;BME280;16776;50.958;10.994;2023-04-26T04:08:15;98549.13;;;3.41;86.94
29907;BME280;16776;50.958;10.994;2023-04-26T04:10:43;98555.09;;;3.41;86.84
29907;BME280;16776;50.958;10.994;2023-04-26T04:13:10;98514.31;;;3.20;87.01
29907;BME280;16776;50.958;10.994;2023-04-26T04:15:37;98555.09;;;3.43;87.44
29907;BME280;16776;50.958;10.994;2023-04-26T04:18:04;98550.84;;;3.40;86.76
29907;BME280;16776;50.958;10.994;2023-04-26T04:20:31;98551.69;;;3.41;87.34
29907;BME280;16776;50.958;10.994;2023-04-26T04:22:57;98550.84;;;3.40;87.36
29907;BME280;16776;50.958;10.994;2023-04-26T04:25:24;98552.53;;;3.41;87.58
29907;BME280;16776;50.958;10.994;2023-04-26T04:27:51;98548.28;;;3.40;87.19
29907;BME280;16776;50.958;10.994;2023-04-26T04:30:18;98551.69;;;3.41;87.19
29907;BME280;16776;50.958;10.994;2023-04-26T04:32:46;98558.47;;;3.43;88.04
29907;BME280;16776;50.958;10.994;2023-04-26T04:35:12;98556.78;;;3.42;87.68
29907;BME280;16776;50.958;10.994;2023-04-26T04:37:39;98561.84;;;3.45;88.03
29907;BME280;16776;50.958;10.994;2023-04-26T04:40:06;98562.72;;;3.48;89.84
29907;BME280;16776;50.958;10.994;2023-04-26T04:42:36;98556.78;;;3.62;91.38
29907;BME280;16776;50.958;10.994;2023-04-26T04:45:03;98559.34;;;3.90;91.65
29907;BME280;16776;50.958;10.994;2023-04-26T04:47:29;98563.50;;;4.18;91.37
29907;BME280;16776;50.958;10.994;2023-04-26T04:49:57;98556.66;;;4.44;90.26
29907;BME280;16776;50.958;10.994;2023-04-26T04:52:24;98565.06;;;4.63;90.23
29907;BME280;16776;50.958;10.994;2023-04-26T04:54:51;98570.09;;;4.80;89.51
29907;BME280;16776;50.958;10.994;2023-04-26T04:57:17;98572.63;;;4.92;89.19
29907;BME280;16776;50.958;10.994;2023-04-26T04:59:44;98574.25;;;5.00;88.95
29907;BME280;16776;50.958;10.994;2023-04-26T05:02:11;98572.50;;;5.09;88.57
29907;BME280;16776;50.958;10.994;2023-04-26T05:04:37;98571.63;;;5.16;88.55
29907;BME280;16776;50.958;10.994;2023-04-26T05:07:05;98577.56;;;5.22;88.81
29907;BME280;16776;50.958;10.994;2023-04-26T05:09:32;98576.72;;;5.23;88.24
29907;BME280;16776;50.958;10.994;2023-04-26T05:11:58;98569.88;;;5.27;88.46
29907;BME280;16776;50.958;10.994;2023-04-26T05:14:25;98574.09;;;5.31;88.00
29907;BME280;16776;50.958;10.994;2023-04-26T05:16:52;98572.38;;;5.33;88.35
29907;BME280;16776;50.958;10.994;2023-04-26T05:19:18;98580.84;;;5.39;88.69
29907;BME280;16776;50.958;10.994;2023-04-26T05:21:45;98575.72;;;5.44;88.89
29907;BME280;16776;50.958;10.994;2023-04-26T05:24:13;98583.31;;;5.52;88.57
29907;BME280;16776;50.958;10.994;2023-04-26T05:26:40;98585.84;;;5.56;88.07
29907;BME280;16776;50.958;10.994;2023-04-26T05:29:06;98590.03;;;5.63;88.77
29907;BME280;16776;50.958;10.994;2023-04-26T05:31:33;98593.41;;;5.73;88.42
29907;BME280;16776;50.958;10.994;2023-04-26T05:33:59;98595.00;;;5.83;88.49
29907;BME280;16776;50.958;10.994;2023-04-26T05:36:26;98594.09;;;5.93;88.32
29907;BME280;16776;50.958;10.994;2023-04-26T05:38:53;98593.13;;;6.05;89.50
29907;BME280;16776;50.958;10.994;2023-04-26T05:41:21;98604.06;;;6.19;89.04
29907;BME280;16776;50.958;10.994;2023-04-26T05:43:47;98606.50;;;6.30;89.53
29907;BME280;16776;50.958;10.994;2023-04-26T05:46:14;98606.38;;;6.43;89.10
29907;BME280;16776;50.958;10.994;2023-04-26T05:48:40;98603.69;;;6.55;88.25
29907;BME280;16776;50.958;10.994;2023-04-26T05:51:07;98609.50;;;6.70;89.29
29907;BME280;16776;50.958;10.994;2023-04-26T05:53:34;98609.38;;;6.83;89.34
29907;BME280;16776;50.958;10.994;2023-04-26T05:56:00;98615.16;;;6.97;89.15
29907;BME280;16776;50.958;10.994;2023-04-26T05:58:28;98622.66;;;7.13;89.48
29907;BME280;16776;50.958;10.994;2023-04-26T06:00:55;98622.50;;;7.23;88.85
29907;BME280;16776;50.958;10.994;2023-04-26T06:03:22;98622.34;;;7.35;89.38
29907;BME280;16776;50.958;10.994;2023-04-26T06:05:48;98622.13;;;7.49;88.42
29907;BME280;16776;50.958;10.994;2023-04-26T06:08:15;98619.41;;;7.61;88.98
29907;BME280;16776;50.958;10.994;2023-04-26T06:10:42;98613.22;;;7.74;89.28
29907;BME280;16776;50.958;10.994;2023-04-26T06:13:08;98619.00;;;7.87;88.51
29907;BME280;16776;50.958;10.994;2023-04-26T06:15:36;98620.44;;;8.03;88.53
29907;BME280;16776;50.958;10.994;2023-04-26T06:18:03;98612.59;;;8.14;88.79
29907;BME280;16776;50.958;10.994;2023-04-26T06:20:30;98622.66;;;8.26;88.46
29907;BME280;16776;50.958;10.994;2023-04-26T06:22:56;98619.03;;;8.38;88.38
29907;BME280;16776;50.958;10.994;2023-04-26T06:25:23;98629.09;;;8.48;87.94
29907;BME280;16776;50.958;10.994;2023-04-26T06:27:49;98628.03;;;8.60;88.51
29907;BME280;16776;50.958;10.994;2023-04-26T06:30:16;98622.66;;;8.72;88.12
29907;BME280;16776;50.958;10.994;2023-04-26T06:32:44;98626.69;;;8.85;87.90
29907;BME280;16776;50.958;10.994;2023-04-26T06:35:11;98625.59;;;8.95;87.79
29907;BME280;16776;50.958;10.994;2023-04-26T06:37:37;98633.13;;;9.06;87.81
29907;BME280;16776;50.958;10.994;2023-04-26T06:40:05;98626.88;;;9.18;87.46
29907;BME280;16776;50.958;10.994;2023-04-26T06:42:32;98617.34;;;9.21;86.99
29907;BME280;16776;50.958;10.994;2023-04-26T06:44:58;98629.91;;;9.38;86.89
29907;BME280;16776;50.958;10.994;2023-04-26T06:47:25;98620.25;;;9.48;87.22
29907;BME280;16776;50.958;10.994;2023-04-26T06:49:53;98625.94;;;9.60;87.09
29907;BME280;16776;50.958;10.994;2023-04-26T06:52:19;98622.34;;;9.69;87.01
29907;BME280;16776;50.958;10.994;2023-04-26T06:54:46;98623.75;;;9.80;87.17
29907;BME280;16776;50.958;10.994;2023-04-26T06:57:13;98623.47;;;9.93;86.80
29907;BME280;16776;50.958;10.994;2023-04-26T06:59:40;98619.72;;;10.06;86.32
29907;BME280;16776;50.958;10.994;2023-04-26T07:02:06;98620.38;;;10.14;86.29
29907;BME280;16776;50.958;10.994;2023-04-26T07:04:33;98621.97;;;10.18;85.91
29907;BME280;16776;50.958;10.994;2023-04-26T07:07:01;98624.41;;;10.24;86.07
29907;BME280;16776;50.958;10.994;2023-04-26T07:09:27;98625.19;;;10.28;85.71
29907;BME280;16776;50.958;10.994;2023-04-26T07:11:54;98636.22;;;10.31;85.88
29907;BME280;16776;50.958;10.994;2023-04-26T07:14:20;98626.72;;;10.35;85.83
29907;BME280;16776;50.958;10.994;2023-04-26T07:16:50;98627.41;;;10.41;86.21
29907;BME280;16776;50.958;10.994;2023-04-26T07:19:16;98629.78;;;10.49;85.72
29907;BME280;16776;50.958;10.994;2023-04-26T07:21:43;98637.31;;;10.56;85.51
29907;BME280;16776;50.958;10.994;2023-04-26T07:24:11;98628.50;;;10.65;85.29
29907;BME280;16776;50.958;10.994;2023-04-26T07:26:37;98633.53;;;10.70;85.06
29907;BME280;16776;50.958;10.994;2023-04-26T07:29:05;98627.34;;;10.75;85.25
29907;BME280;16776;50.958;10.994;2023-04-26T07:31:32;98636.56;;;10.84;85.60
29907;BME280;16776;50.958;10.994;2023-04-26T07:33:58;98634.53;;;10.95;85.71
29907;BME280;16776;50.958;10.994;2023-04-26T07:36:25;98634.19;;;11.07;85.01
29907;BME280;16776;50.958;10.994;2023-04-26T07:38:52;98633.91;;;11.18;85.08
29907;BME280;16776;50.958;10.994;2023-04-26T07:41:20;98630.91;;;11.31;85.17
29907;BME280;16776;50.958;10.994;2023-04-26T07:43:46;98632.34;;;11.40;85.28
29907;BME280;16776;50.958;10.994;2023-04-26T07:46:16;98632.06;;;11.51;85.30
29907;BME280;16776;50.958;10.994;2023-04-26T07:48:42;98631.78;;;11.60;84.32
29907;BME280;16776;50.958;10.994;2023-04-26T07:51:10;98629.97;;;11.63;83.60
29907;BME280;16776;50.958;10.994;2023-04-26T07:53:37;98629.97;;;11.63;83.56
29907;BME280;16776;50.958;10.994;2023-04-26T07:56:04;98622.16;;;11.65;84.21
29907;BME280;16776;50.958;10.994;2023-04-26T07:58:33;98583.34;;;11.41;83.87
29907;BME280;16776;50.958;10.994;2023-04-26T08:01:00;98617.81;;;11.67;83.28
29907;BME280;16776;50.958;10.994;2023-04-26T08:03:27;98624.88;;;11.62;82.71
29907;BME280;16776;50.958;10.994;2023-04-26T08:05:54;98625.16;;;11.51;82.94
29907;BME280;16776;50.958;10.994;2023-04-26T08:08:21;98635.06;;;11.37;82.28
29907;BME280;16776;50.958;10.994;2023-04-26T08:10:48;98633.75;;;11.22;82.47
29907;BME280;16776;50.958;10.994;2023-04-26T08:13:15;98633.31;;;11.08;82.53
29907;BME280;16776;50.958;10.994;2023-04-26T08:15:42;98630.91;;;11.02;83.10
29907;BME280;16776;50.958;10.994;2023-04-26T08:18:09;98635.22;;;11.01;83.07
29907;BME280;16776;50.958;10.994;2023-04-26T08:20:37;98638.53;;;11.07;83.35
29907;BME280;16776;50.958;10.994;2023-04-26T08:23:04;98641.09;;;11.07;83.26
29907;BME280;16776;50.958;10.994;2023-04-26T08:25:31;98641.03;;;11.08;82.88
29907;BME280;16776;50.958;10.994;2023-04-26T08:28:02;98638.59;;;11.03;82.69
29907;BME280;16776;50.958;10.994;2023-04-26T08:30:29;98643.97;;;10.96;82.07
29907;BME280;16776;50.958;10.994;2023-04-26T08:32:57;98646.81;;;10.87;82.15
29907;BME280;16776;50.958;10.994;2023-04-26T08:35:26;98641.97;;;10.75;81.86
29907;BME280;16776;50.958;10.994;2023-04-26T08:37:53;98640.38;;;10.71;82.61
29907;BME280;16776;50.958;10.994;2023-04-26T08:40:22;98638.59;;;10.73;82.69
29907;BME280;16776;50.958;10.994;2023-04-26T08:42:50;98640.47;;;10.68;82.33
29907;BME280;16776;50.958;10.994;2023-04-26T08:45:18;98644.72;;;10.69;81.86
29907;BME280;16776;50.958;10.994;2023-04-26T08:47:49;98643.97;;;10.65;81.76
29907;BME280;16776;50.958;10.994;2023-04-26T08:50:20;98638.00;;;10.63;81.98
29907;BME280;16776;50.958;10.994;2023-04-26T08:52:49;98640.81;;;10.55;81.43
29907;BME280;16776;50.958;10.994;2023-04-26T08:55:17;98638.38;;;10.48;81.46
29907;BME280;16776;50.958;10.994;2023-04-26T08:57:47;98641.16;;;10.40;81.23
29907;BME280;16776;50.958;10.994;2023-04-26T09:00:15;98641.38;;;10.31;81.53
29907;BME280;16776;50.958;10.994;2023-04-26T09:02:46;98640.50;;;10.32;81.31
29907;BME280;16776;50.958;10.994;2023-04-26T09:05:15;98649.28;;;10.23;80.97
29907;BME280;16776;50.958;10.994;2023-04-26T09:07:46;98636.41;;;10.23;81.18
29907;BME280;16776;50.958;10.994;2023-04-26T09:10:17;98644.19;;;10.22;81.19
29907;BME280;16776;50.958;10.994;2023-04-26T09:12:50;98640.84;;;10.18;81.25
29907;BME280;16776;50.958;10.994;2023-04-26T09:15:19;98639.28;;;10.13;80.81
29907;BME280;16776;50.958;10.994;2023-04-26T09:17:53;98653.84;;;10.14;80.67
29907;BME280;16776;50.958;10.994;2023-04-26T09:20:24;98644.66;;;10.04;80.73
29907;BME280;16776;50.958;10.994;2023-04-26T09:23:02;98645.59;;;10.00;80.56
29907;BME280;16776;50.958;10.994;2023-04-26T09:25:30;98646.59;;;9.94;80.94
29907;BME280;16776;50.958;10.994;2023-04-26T09:27:58;98644.94;;;9.92;81.17
29907;BME280;16776;50.958;10.994;2023-04-26T09:30:27;98643.25;;;9.91;80.92
29907;BME280;16776;50.958;10.994;2023-04-26T09:32:57;98644.94;;;9.92;80.75
29907;BME280;16776;50.958;10.994;2023-04-26T09:35:26;98647.50;;;9.92;81.26
29907;BME280;16776;50.958;10.994;2023-04-26T09:38:02;98654.25;;;9.97;80.26
29907;BME280;16776;50.958;10.994;2023-04-26T09:40:34;98654.28;;;9.96;80.71
29907;BME280;16776;50.958;10.994;2023-04-26T09:43:03;98662.00;;;9.96;80.61
29907;BME280;16776;50.958;10.994;2023-04-26T09:45:31;98662.88;;;9.95;80.54
29907;BME280;16776;50.958;10.994;2023-04-26T09:48:14;98661.84;;;10.02;79.63
29907;BME280;16776;50.958;10.994;2023-04-26T09:50:42;98650.16;;;9.89;79.95
29907;BME280;16776;50.958;10.994;2023-04-26T09:53:12;98654.47;;;9.87;79.99
29907;BME280;16776;50.958;10.994;2023-04-26T09:55:50;98656.31;;;9.81;80.15
29907;BME280;16776;50.958;10.994;2023-04-26T09:58:17;98653.78;;;9.80;80.04
29907;BME280;16776;50.958;10.994;2023-04-26T10:00:44;98658.03;;;9.82;79.87
29907;BME280;16776;50.958;10.994;2023-04-26T10:03:12;98652.03;;;9.82;80.01
29907;BME280;16776;50.958;10.994;2023-04-26T10:05:40;98664.88;;;9.82;79.68
29907;BME280;16776;50.958;10.994;2023-04-26T10:08:07;98657.16;;;9.82;79.88
29907;BME280;16776;50.958;10.994;2023-04-26T10:10:36;98653.63;;;9.86;79.48
29907;BME280;16776;50.958;10.994;2023-04-26T10:13:04;98654.47;;;9.87;79.72
29907;BME280;16776;50.958;10.994;2023-04-26T10:15:31;98658.03;;;9.82;79.58
29907;BME280;16776;50.958;10.994;2023-04-26T10:17:58;98651.13;;;9.84;79.77
29907;BME280;16776;50.958;10.994;2023-04-26T10:20:27;98651.81;;;9.91;79.91
29907;BME280;16776;50.958;10.994;2023-04-26T10:22:56;98650.88;;;9.94;80.04
29907;BME280;16776;50.958;10.994;2023-04-26T10:25:35;98654.84;;;10.07;80.07
29907;BME280;16776;50.958;10.994;2023-04-26T10:28:01;98654.84;;;10.08;80.54
29907;BME280;16776;50.958;10.994;2023-04-26T10:30:29;98645.06;;;10.21;80.26
29907;BME280;16776;50.958;10.994;2023-04-26T10:33:14;98648.84;;;10.42;80.39
29907;BME280;16776;50.958;10.994;2023-04-26T10:36:00;98651.09;;;10.55;80.54
29907;BME280;16776;50.958;10.994;2023-04-26T10:38:27;98646.69;;;10.59;80.30
29907;BME280;16776;50.958;10.994;2023-04-26T10:40:55;98627.63;;;10.66;79.92
29907;BME280;16776;50.958;10.994;2023-04-26T10:43:43;98639.19;;;10.82;79.87
29907;BME280;16776;50.958;10.994;2023-04-26T10:46:34;98638.78;;;10.97;79.44
29907;BME280;16776;50.958;10.994;2023-04-26T10:49:14;98636.03;;;11.03;79.86
29907;BME280;16776;50.958;10.994;2023-04-26T10:52:08;98631.31;;;11.18;80.96
29907;BME280;16776;50.958;10.994;2023-04-26T10:54:50;98633.38;;;11.34;80.32
29907;BME280;16776;50.958;10.994;2023-04-26T10:57:17;98630.41;;;11.48;80.75
29907;BME280;16776;50.958;10.994;2023-04-26T11:03:01;98621.03;;;12.01;80.13
29907;BME280;16776;50.958;10.994;2023-04-26T11:05:52;98624.44;;;12.28;80.20
29907;BME280;16776;50.958;10.994;2023-04-26T11:08:23;98629.44;;;12.33;79.35
29907;BME280;16776;50.958;10.994;2023-04-26T11:10:57;98623.94;;;12.42;79.14
29907;BME280;16776;50.958;10.994;2023-04-26T11:13:24;98625.59;;;12.44;78.89
29907;BME280;16776;50.958;10.994;2023-04-26T11:15:59;98627.06;;;12.51;78.32
29907;BME280;16776;50.958;10.994;2023-04-26T11:18:29;98618.72;;;12.43;78.17
29907;BME280;16776;50.958;10.994;2023-04-26T11:20:55;98618.09;;;12.37;78.46
29907;BME280;16776;50.958;10.994;2023-04-26T11:23:23;98616.53;;;12.33;77.97
29907;BME280;16776;50.958;10.994;2023-04-26T11:25:50;98618.41;;;12.28;77.81
29907;BME280;16776;50.958;10.994;2023-04-26T11:28:19;98611.69;;;12.22;78.05
29907;BME280;16776;50.958;10.994;2023-04-26T11:30:47;98616.09;;;12.20;78.58
29907;BME280;16776;50.958;10.994;2023-04-26T11:33:18;98615.25;;;12.19;77.60
29907;BME280;16776;50.958;10.994;2023-04-26T11:35:49;98610.28;;;12.13;78.15
29907;BME280;16776;50.958;10.994;2023-04-26T11:38:16;98607.78;;;12.10;78.16
29907;BME280;16776;50.958;10.994;2023-04-26T11:40:43;98605.97;;;12.14;78.76
29907;BME280;16776;50.958;10.994;2023-04-26T11:43:10;98600.56;;;12.21;78.20
29907;BME280;16776;50.958;10.994;2023-04-26T11:45:37;98604.59;;;12.29;78.52
29907;BME280;16776;50.958;10.994;2023-04-26T11:48:09;98605.94;;;12.40;78.11
29907;BME280;16776;50.958;10.994;2023-04-26T11:50:38;98612.03;;;12.38;77.95
29907;BME280;16776;50.958;10.994;2023-04-26T11:53:07;98606.69;;;12.42;77.79
29907;BME280;16776;50.958;10.994;2023-04-26T11:55:38;98604.91;;;12.44;77.83
29907;BME280;16776;50.958;10.994;2023-04-26T11:58:09;98616.09;;;12.45;77.22
29907;BME280;16776;50.958;10.994;2023-04-26T12:00:36;98608.56;;;12.39;77.39
29907;BME280;16776;50.958;10.994;2023-04-26T12:03:04;98612.00;;;12.39;77.75
29907;BME280;16776;50.958;10.994;2023-04-26T12:05:31;98605.97;;;12.39;77.37
29907;BME280;16776;50.958;10.994;2023-04-26T12:07:59;98615.34;;;12.41;77.93
29907;BME280;16776;50.958;10.994;2023-04-26T12:10:28;98606.66;;;12.44;78.21
29907;BME280;16776;50.958;10.994;2023-04-26T12:12:58;98609.16;;;12.47;77.57
29907;BME280;16776;50.958;10.994;2023-04-26T12:15:29;98604.72;;;12.50;77.32
29907;BME280;16776;50.958;10.994;2023-04-26T12:17:58;98607.56;;;12.43;77.55
29907;BME280;16776;50.958;10.994;2023-04-26T12:20:27;98597.38;;;12.38;77.39
29907;BME280;16776;50.958;10.994;2023-04-26T12:23:01;98605.66;;;12.48;77.10
29907;BME280;16776;50.958;10.994;2023-04-26T12:25:30;98605.78;;;12.45;77.26
29907;BME280;16776;50.958;10.994;2023-04-26T12:27:57;98605.84;;;12.42;77.69
29907;BME280;16776;50.958;10.994;2023-04-26T12:30:25;98598.91;;;12.44;77.35
29907;BME280;16776;50.958;10.994;2023-04-26T12:32:52;98611.03;;;12.42;77.59
29907;BME280;16776;50.958;10.994;2023-04-26T12:35:20;98603.28;;;12.42;76.95
29907;BME280;16776;50.958;10.994;2023-04-26T12:37:46;98604.19;;;12.41;76.94
29907;BME280;16776;50.958;10.994;2023-04-26T12:40:14;98604.19;;;12.41;77.35
29907;BME280;16776;50.958;10.994;2023-04-26T12:42:42;98598.13;;;12.42;76.81
29907;BME280;16776;50.958;10.994;2023-04-26T12:45:09;98593.13;;;12.37;76.77
29907;BME280;16776;50.958;10.994;2023-04-26T12:47:35;98604.38;;;12.35;77.24
29907;BME280;16776;50.958;10.994;2023-04-26T12:50:02;98610.56;;;12.31;77.00
29907;BME280;16776;50.958;10.994;2023-04-26T12:52:30;98609.75;;;12.29;77.08
29907;BME280;16776;50.958;10.994;2023-04-26T12:54:56;98605.50;;;12.28;76.82
29907;BME280;16776;50.958;10.994;2023-04-26T12:57:23;98600.34;;;12.28;76.74
29907;BME280;16776;50.958;10.994;2023-04-26T12:59:51;98604.53;;;12.30;77.07
29907;BME280;16776;50.958;10.994;2023-04-26T13:02:18;98608.09;;;12.28;76.60